sensor_id;sensor_type;location;lat;lon;timestamp;temperature;humidity
24338;DHT22;12457;50.832;4.346;2022-09-09T00:00:31;15.40;99.90
24338;DHT22;12457;50.832;4.346;2022-09-09T00:03:23;15.40;99.90
24338;DHT22;12457;50.832;4.346;2022-09-09T00:06:05;15.40;99.90
24338;DHT22;12457;50.832;4.346;2022-09-09T00:09:13;15.40;99.90
24338;DHT22;12457;50.832;4.346;2022-09-09T00:11:40;15.30;99.90
24338;DHT22;12457;50.832;4.346;2022-09-09T00:16:45;15.30;99.90
24338;DHT22;12457;50.832;4.346;2022-09-09T00:19:28;15.30;99.90
24338;DHT22;12457;50.832;4.346;2022-09-09T00:22:18;15.20;99.90
24338;DHT22;12457;50.832;4.346;2022-09-09T00:24:52;15.10;99.90
24338;DHT22;12457;50.832;4.346;2022-09-09T00:27:41;15.20;99.90
24338;DHT22;12457;50.832;4.346;2022-09-09T00:30:13;15.20;99.90
24338;DHT22;12457;50.832;4.346;2022-09-09T00:32:40;15.20;99.90
24338;DHT22;12457;50.832;4.346;2022-09-09T00:37:46;15.20;99.90
24338;DHT22;12457;50.832;4.346;2022-09-09T00:40:29;15.10;99.90
24338;DHT22;12457;50.832;4.346;2022-09-09T00:49:06;15.20;99.90
24338;DHT22;12457;50.832;4.346;2022-09-09T00:51:55;15.20;99.90
24338;DHT22;12457;50.832;4.346;2022-09-09T00:57:29;15.20;99.90
24338;DHT22;12457;50.832;4.346;2022-09-09T01:08:12;15.40;99.90
24338;DHT22;12457;50.832;4.346;2022-09-09T01:10:51;15.40;99.90
24338;DHT22;12457;50.832;4.346;2022-09-09T01:13:30;15.40;99.90
24338;DHT22;12457;50.832;4.346;2022-09-09T01:16:01;15.50;99.90
24338;DHT22;12457;50.832;4.346;2022-09-09T01:18:49;15.60;99.90
24338;DHT22;12457;50.832;4.346;2022-09-09T01:24:36;15.50;99.90
24338;DHT22;12457;50.832;4.346;2022-09-09T01:27:16;15.60;99.90
24338;DHT22;12457;50.832;4.346;2022-09-09T01:29:48;15.60;99.90
24338;DHT22;12457;50.832;4.346;2022-09-09T01:32:40;15.60;99.90
24338;DHT22;12457;50.832;4.346;2022-09-09T01:35:23;15.60;99.90
24338;DHT22;12457;50.832;4.346;2022-09-09T01:37:52;15.50;99.90
24338;DHT22;12457;50.832;4.346;2022-09-09T01:40:20;15.50;99.90
24338;DHT22;12457;50.832;4.346;2022-09-09T01:42:46;15.40;99.90
24338;DHT22;12457;50.832;4.346;2022-09-09T01:45:12;15.40;99.90
24338;DHT22;12457;50.832;4.346;2022-09-09T01:47:38;15.40;99.90
24338;DHT22;12457;50.832;4.346;2022-09-09T01:50:04;15.40;99.90
24338;DHT22;12457;50.832;4.346;2022-09-09T01:52:31;15.30;99.90
24338;DHT22;12457;50.832;4.346;2022-09-09T01:55:15;15.40;99.90
24338;DHT22;12457;50.832;4.346;2022-09-09T02:00:29;15.30;99.90
24338;DHT22;12457;50.832;4.346;2022-09-09T02:05:40;15.40;99.90
24338;DHT22;12457;50.832;4.346;2022-09-09T02:08:25;15.30;99.90
24338;DHT22;12457;50.832;4.346;2022-09-09T02:11:10;15.30;99.90
24338;DHT22;12457;50.832;4.346;2022-09-09T02:13:38;15.20;99.90
24338;DHT22;12457;50.832;4.346;2022-09-09T02:16:22;15.30;99.90
24338;DHT22;12457;50.832;4.346;2022-09-09T02:21:35;15.30;99.90
24338;DHT22;12457;50.832;4.346;2022-09-09T02:24:05;15.30;99.90
24338;DHT22;12457;50.832;4.346;2022-09-09T02:26:40;15.30;99.90
24338;DHT22;12457;50.832;4.346;2022-09-09T02:29:21;15.30;99.90
24338;DHT22;12457;50.832;4.346;2022-09-09T02:31:50;15.30;99.90
24338;DHT22;12457;50.832;4.346;2022-09-09T02:34:18;15.20;99.90
24338;DHT22;12457;50.832;4.346;2022-09-09T02:36:53;15.20;99.90
24338;DHT22;12457;50.832;4.346;2022-09-09T02:39:19;15.20;99.90
24338;DHT22;12457;50.832;4.346;2022-09-09T02:41:45;15.20;99.90
24338;DHT22;12457;50.832;4.346;2022-09-09T02:44:20;15.20;99.90
24338;DHT22;12457;50.832;4.346;2022-09-09T02:47:34;15.30;99.90
24338;DHT22;12457;50.832;4.346;2022-09-09T02:50:07;15.20;99.90
24338;DHT22;12457;50.832;4.346;2022-09-09T02:52:59;15.20;99.90
24338;DHT22;12457;50.832;4.346;2022-09-09T02:55:41;15.10;99.90
24338;DHT22;12457;50.832;4.346;2022-09-09T02:58:13;15.20;99.90
24338;DHT22;12457;50.832;4.346;2022-09-09T03:00:47;15.10;99.90
24338;DHT22;12457;50.832;4.346;2022-09-09T03:03:13;15.10;99.90
24338;DHT22;12457;50.832;4.346;2022-09-09T03:05:38;15.10;99.90
24338;DHT22;12457;50.832;4.346;2022-09-09T03:08:05;15.10;99.90
24338;DHT22;12457;50.832;4.346;2022-09-09T03:10:36;15.20;99.90
24338;DHT22;12457;50.832;4.346;2022-09-09T03:13:03;15.20;99.90
24338;DHT22;12457;50.832;4.346;2022-09-09T03:15:31;15.20;99.90
24338;DHT22;12457;50.832;4.346;2022-09-09T03:17:58;15.20;99.90
24338;DHT22;12457;50.832;4.346;2022-09-09T03:20:28;15.20;99.90
24338;DHT22;12457;50.832;4.346;2022-09-09T03:22:55;15.20;99.90
24338;DHT22;12457;50.832;4.346;2022-09-09T03:25:22;15.20;99.90
24338;DHT22;12457;50.832;4.346;2022-09-09T03:27:51;15.10;99.90
24338;DHT22;12457;50.832;4.346;2022-09-09T03:30:23;15.10;99.90
24338;DHT22;12457;50.832;4.346;2022-09-09T03:32:49;15.10;99.90
24338;DHT22;12457;50.832;4.346;2022-09-09T03:35:15;15.10;99.90
24338;DHT22;12457;50.832;4.346;2022-09-09T03:37:41;15.10;99.90
24338;DHT22;12457;50.832;4.346;2022-09-09T03:40:10;15.10;99.90
24338;DHT22;12457;50.832;4.346;2022-09-09T03:42:39;15.10;99.90
24338;DHT22;12457;50.832;4.346;2022-09-09T03:45:07;15.30;99.90
24338;DHT22;12457;50.832;4.346;2022-09-09T03:47:39;15.10;99.90
24338;DHT22;12457;50.832;4.346;2022-09-09T03:50:09;15.10;99.90
24338;DHT22;12457;50.832;4.346;2022-09-09T03:52:39;15.10;99.90
24338;DHT22;12457;50.832;4.346;2022-09-09T03:55:06;15.10;99.90
24338;DHT22;12457;50.832;4.346;2022-09-09T03:57:33;15.10;99.90
24338;DHT22;12457;50.832;4.346;2022-09-09T04:00:03;15.10;99.90
24338;DHT22;12457;50.832;4.346;2022-09-09T04:02:29;15.20;99.90
24338;DHT22;12457;50.832;4.346;2022-09-09T04:04:55;15.20;99.90
24338;DHT22;12457;50.832;4.346;2022-09-09T04:07:25;15.30;99.90
24338;DHT22;12457;50.832;4.346;2022-09-09T04:09:52;15.30;99.90
24338;DHT22;12457;50.832;4.346;2022-09-09T04:12:19;15.40;99.90
24338;DHT22;12457;50.832;4.346;2022-09-09T04:14:46;15.40;99.90
24338;DHT22;12457;50.832;4.346;2022-09-09T04:17:12;15.50;99.90
24338;DHT22;12457;50.832;4.346;2022-09-09T04:19:37;15.40;99.90
24338;DHT22;12457;50.832;4.346;2022-09-09T04:22:03;15.30;99.90
24338;DHT22;12457;50.832;4.346;2022-09-09T04:24:29;15.30;99.90
24338;DHT22;12457;50.832;4.346;2022-09-09T04:26:55;15.40;99.90
24338;DHT22;12457;50.832;4.346;2022-09-09T04:29:20;15.20;99.90
24338;DHT22;12457;50.832;4.346;2022-09-09T04:31:46;15.20;99.90
24338;DHT22;12457;50.832;4.346;2022-09-09T04:34:12;15.20;99.90
24338;DHT22;12457;50.832;4.346;2022-09-09T04:36:37;15.10;99.90
24338;DHT22;12457;50.832;4.346;2022-09-09T04:39:04;15.10;99.90
24338;DHT22;12457;50.832;4.346;2022-09-09T04:41:30;15.10;99.90
24338;DHT22;12457;50.832;4.346;2022-09-09T04:43:56;15.10;99.90
24338;DHT22;12457;50.832;4.346;2022-09-09T04:46:22;15.10;99.90
24338;DHT22;12457;50.832;4.346;2022-09-09T04:48:49;15.10;99.90
24338;DHT22;12457;50.832;4.346;2022-09-09T04:51:15;15.20;99.90
24338;DHT22;12457;50.832;4.346;2022-09-09T04:53:41;15.20;99.90
24338;DHT22;12457;50.832;4.346;2022-09-09T04:56:08;15.20;99.90
24338;DHT22;12457;50.832;4.346;2022-09-09T04:58:36;15.10;99.90
24338;DHT22;12457;50.832;4.346;2022-09-09T05:01:13;15.10;99.90
24338;DHT22;12457;50.832;4.346;2022-09-09T05:03:40;15.20;99.90
24338;DHT22;12457;50.832;4.346;2022-09-09T05:06:14;15.10;99.90
24338;DHT22;12457;50.832;4.346;2022-09-09T05:08:46;15.20;99.90
24338;DHT22;12457;50.832;4.346;2022-09-09T05:11:24;15.20;99.90
24338;DHT22;12457;50.832;4.346;2022-09-09T05:13:52;15.10;99.90
24338;DHT22;12457;50.832;4.346;2022-09-09T05:16:19;15.20;99.90
24338;DHT22;12457;50.832;4.346;2022-09-09T05:18:45;15.20;99.90
24338;DHT22;12457;50.832;4.346;2022-09-09T05:21:13;15.30;99.90
24338;DHT22;12457;50.832;4.346;2022-09-09T05:23:38;15.40;99.90
24338;DHT22;12457;50.832;4.346;2022-09-09T05:26:05;15.40;99.90
24338;DHT22;12457;50.832;4.346;2022-09-09T05:28:34;15.50;99.90
24338;DHT22;12457;50.832;4.346;2022-09-09T05:31:04;15.50;99.90
24338;DHT22;12457;50.832;4.346;2022-09-09T05:33:31;15.60;99.90
24338;DHT22;12457;50.832;4.346;2022-09-09T05:36:05;15.60;99.90
24338;DHT22;12457;50.832;4.346;2022-09-09T05:38:33;15.70;99.90
24338;DHT22;12457;50.832;4.346;2022-09-09T05:41:00;15.70;99.90
24338;DHT22;12457;50.832;4.346;2022-09-09T05:43:29;15.70;99.90
24338;DHT22;12457;50.832;4.346;2022-09-09T05:46:06;15.70;99.90
24338;DHT22;12457;50.832;4.346;2022-09-09T05:48:37;15.60;99.90
24338;DHT22;12457;50.832;4.346;2022-09-09T05:51:05;15.60;99.90
24338;DHT22;12457;50.832;4.346;2022-09-09T05:53:32;15.60;99.90
24338;DHT22;12457;50.832;4.346;2022-09-09T05:56:04;15.60;99.90
24338;DHT22;12457;50.832;4.346;2022-09-09T05:58:33;15.70;99.90
24338;DHT22;12457;50.832;4.346;2022-09-09T06:01:10;15.80;99.90
24338;DHT22;12457;50.832;4.346;2022-09-09T06:03:38;15.90;99.90
24338;DHT22;12457;50.832;4.346;2022-09-09T06:06:06;15.90;99.90
24338;DHT22;12457;50.832;4.346;2022-09-09T06:08:38;16.00;99.90
24338;DHT22;12457;50.832;4.346;2022-09-09T06:11:09;16.00;99.90
24338;DHT22;12457;50.832;4.346;2022-09-09T06:13:36;16.20;99.90
24338;DHT22;12457;50.832;4.346;2022-09-09T06:16:13;16.40;99.90
24338;DHT22;12457;50.832;4.346;2022-09-09T06:18:40;16.70;99.90
24338;DHT22;12457;50.832;4.346;2022-09-09T06:21:11;16.90;99.90
24338;DHT22;12457;50.832;4.346;2022-09-09T06:23:40;17.00;99.90
24338;DHT22;12457;50.832;4.346;2022-09-09T06:26:22;16.80;99.90
24338;DHT22;12457;50.832;4.346;2022-09-09T06:28:50;16.70;99.90
24338;DHT22;12457;50.832;4.346;2022-09-09T06:31:20;16.70;99.90
24338;DHT22;12457;50.832;4.346;2022-09-09T06:33:48;16.70;99.90
24338;DHT22;12457;50.832;4.346;2022-09-09T06:36:19;16.80;99.90
24338;DHT22;12457;50.832;4.346;2022-09-09T06:38:46;16.70;99.90
24338;DHT22;12457;50.832;4.346;2022-09-09T06:41:14;16.70;99.90
24338;DHT22;12457;50.832;4.346;2022-09-09T06:43:40;16.70;99.90
24338;DHT22;12457;50.832;4.346;2022-09-09T06:46:08;16.60;99.90
24338;DHT22;12457;50.832;4.346;2022-09-09T06:48:35;16.70;99.90
24338;DHT22;12457;50.832;4.346;2022-09-09T06:51:13;16.70;99.90
24338;DHT22;12457;50.832;4.346;2022-09-09T06:53:40;16.70;99.90
24338;DHT22;12457;50.832;4.346;2022-09-09T06:56:26;16.80;99.90
24338;DHT22;12457;50.832;4.346;2022-09-09T06:58:55;17.00;99.90
24338;DHT22;12457;50.832;4.346;2022-09-09T07:01:26;17.10;99.90
24338;DHT22;12457;50.832;4.346;2022-09-09T07:03:54;17.20;99.90
24338;DHT22;12457;50.832;4.346;2022-09-09T07:06:22;17.20;99.90
24338;DHT22;12457;50.832;4.346;2022-09-09T07:08:58;17.20;99.90
24338;DHT22;12457;50.832;4.346;2022-09-09T07:11:30;17.20;99.90
24338;DHT22;12457;50.832;4.346;2022-09-09T07:13:58;17.20;99.90
24338;DHT22;12457;50.832;4.346;2022-09-09T07:16:24;17.20;99.90
24338;DHT22;12457;50.832;4.346;2022-09-09T07:18:52;17.30;99.90
24338;DHT22;12457;50.832;4.346;2022-09-09T07:21:18;17.40;99.90
24338;DHT22;12457;50.832;4.346;2022-09-09T07:23:48;17.50;99.90
24338;DHT22;12457;50.832;4.346;2022-09-09T07:26:19;17.60;99.90
24338;DHT22;12457;50.832;4.346;2022-09-09T07:28:56;17.40;99.90
24338;DHT22;12457;50.832;4.346;2022-09-09T07:31:31;17.40;99.60
24338;DHT22;12457;50.832;4.346;2022-09-09T07:33:58;17.40;99.80
24338;DHT22;12457;50.832;4.346;2022-09-09T07:36:27;17.30;99.60
24338;DHT22;12457;50.832;4.346;2022-09-09T07:38:55;17.30;99.90
24338;DHT22;12457;50.832;4.346;2022-09-09T07:41:25;17.20;99.90
24338;DHT22;12457;50.832;4.346;2022-09-09T07:43:51;17.10;99.90
24338;DHT22;12457;50.832;4.346;2022-09-09T07:46:20;17.00;99.90
24338;DHT22;12457;50.832;4.346;2022-09-09T07:48:47;17.00;99.90
24338;DHT22;12457;50.832;4.346;2022-09-09T07:51:21;17.00;99.90
24338;DHT22;12457;50.832;4.346;2022-09-09T07:53:48;17.10;99.90
24338;DHT22;12457;50.832;4.346;2022-09-09T07:56:18;17.10;99.90
24338;DHT22;12457;50.832;4.346;2022-09-09T07:58:47;17.10;99.90
24338;DHT22;12457;50.832;4.346;2022-09-09T08:01:19;17.10;99.90
24338;DHT22;12457;50.832;4.346;2022-09-09T08:03:45;17.20;99.90
24338;DHT22;12457;50.832;4.346;2022-09-09T08:06:20;17.40;99.90
24338;DHT22;12457;50.832;4.346;2022-09-09T08:08:58;17.70;99.90
24338;DHT22;12457;50.832;4.346;2022-09-09T08:11:27;18.00;99.90
24338;DHT22;12457;50.832;4.346;2022-09-09T08:13:54;18.30;99.90
24338;DHT22;12457;50.832;4.346;2022-09-09T08:16:23;18.40;97.60
24338;DHT22;12457;50.832;4.346;2022-09-09T08:18:50;18.60;97.40
24338;DHT22;12457;50.832;4.346;2022-09-09T08:21:25;18.70;95.10
24338;DHT22;12457;50.832;4.346;2022-09-09T08:23:52;18.50;95.50
24338;DHT22;12457;50.832;4.346;2022-09-09T08:26:24;18.30;96.90
24338;DHT22;12457;50.832;4.346;2022-09-09T08:28:51;18.20;97.70
24338;DHT22;12457;50.832;4.346;2022-09-09T08:31:32;18.30;97.40
24338;DHT22;12457;50.832;4.346;2022-09-09T08:34:00;18.40;98.10
24338;DHT22;12457;50.832;4.346;2022-09-09T08:36:30;18.30;97.50
24338;DHT22;12457;50.832;4.346;2022-09-09T08:38:58;18.20;99.80
24338;DHT22;12457;50.832;4.346;2022-09-09T08:46:56;17.90;99.90
24338;DHT22;12457;50.832;4.346;2022-09-09T08:49:57;17.70;99.90
24338;DHT22;12457;50.832;4.346;2022-09-09T08:52:53;17.60;99.90
24338;DHT22;12457;50.832;4.346;2022-09-09T08:55:33;17.60;99.90
24338;DHT22;12457;50.832;4.346;2022-09-09T08:58:21;17.60;99.90
24338;DHT22;12457;50.832;4.346;2022-09-09T09:10:11;17.70;99.90
24338;DHT22;12457;50.832;4.346;2022-09-09T09:12:50;17.70;99.90
24338;DHT22;12457;50.832;4.346;2022-09-09T09:15:23;17.60;99.90
24338;DHT22;12457;50.832;4.346;2022-09-09T09:17:49;17.60;99.90
24338;DHT22;12457;50.832;4.346;2022-09-09T09:20:18;17.60;99.90
24338;DHT22;12457;50.832;4.346;2022-09-09T09:22:50;17.50;99.90
24338;DHT22;12457;50.832;4.346;2022-09-09T09:25:42;17.40;99.90
24338;DHT22;12457;50.832;4.346;2022-09-09T09:30:41;17.40;99.90
24338;DHT22;12457;50.832;4.346;2022-09-09T09:33:33;17.20;99.90
24338;DHT22;12457;50.832;4.346;2022-09-09T09:35:59;17.10;99.90
24338;DHT22;12457;50.832;4.346;2022-09-09T09:38:27;17.00;99.90
24338;DHT22;12457;50.832;4.346;2022-09-09T09:40:57;17.00;99.90
24338;DHT22;12457;50.832;4.346;2022-09-09T09:43:28;16.90;99.90
24338;DHT22;12457;50.832;4.346;2022-09-09T09:45:55;16.90;99.90
24338;DHT22;12457;50.832;4.346;2022-09-09T09:48:21;17.00;99.90
24338;DHT22;12457;50.832;4.346;2022-09-09T09:51:01;17.00;99.90
24338;DHT22;12457;50.832;4.346;2022-09-09T09:53:29;17.10;99.90
24338;DHT22;12457;50.832;4.346;2022-09-09T09:56:07;17.10;99.90
24338;DHT22;12457;50.832;4.346;2022-09-09T09:58:48;17.10;99.90
24338;DHT22;12457;50.832;4.346;2022-09-09T10:01:27;17.10;99.90
24338;DHT22;12457;50.832;4.346;2022-09-09T10:04:02;17.30;99.90
24338;DHT22;12457;50.832;4.346;2022-09-09T10:06:36;17.30;99.90
24338;DHT22;12457;50.832;4.346;2022-09-09T10:09:03;17.30;99.90
24338;DHT22;12457;50.832;4.346;2022-09-09T10:17:30;17.30;99.90
24338;DHT22;12457;50.832;4.346;2022-09-09T10:22:33;17.30;99.90
24338;DHT22;12457;50.832;4.346;2022-09-09T10:31:14;17.60;99.90
24338;DHT22;12457;50.832;4.346;2022-09-09T10:36:49;18.20;99.90
24338;DHT22;12457;50.832;4.346;2022-09-09T10:55:16;19.50;96.80
24338;DHT22;12457;50.832;4.346;2022-09-09T10:57:51;19.70;95.20
24338;DHT22;12457;50.832;4.346;2022-09-09T11:00:21;19.90;94.60
24338;DHT22;12457;50.832;4.346;2022-09-09T11:03:05;19.80;93.60
24338;DHT22;12457;50.832;4.346;2022-09-09T11:06:18;20.10;92.90
24338;DHT22;12457;50.832;4.346;2022-09-09T11:08:45;19.90;92.40
24338;DHT22;12457;50.832;4.346;2022-09-09T11:11:26;19.70;93.90
24338;DHT22;12457;50.832;4.346;2022-09-09T11:14:03;19.60;93.40
24338;DHT22;12457;50.832;4.346;2022-09-09T11:16:43;19.60;95.40
24338;DHT22;12457;50.832;4.346;2022-09-09T11:19:34;19.40;93.90
24338;DHT22;12457;50.832;4.346;2022-09-09T11:22:24;19.30;94.60
24338;DHT22;12457;50.832;4.346;2022-09-09T11:25:25;19.20;95.10
24338;DHT22;12457;50.832;4.346;2022-09-09T11:31:01;19.30;96.10
24338;DHT22;12457;50.832;4.346;2022-09-09T11:44:37;19.30;93.90
24338;DHT22;12457;50.832;4.346;2022-09-09T11:47:03;19.30;94.30
24338;DHT22;12457;50.832;4.346;2022-09-09T11:49:40;19.50;94.00
24338;DHT22;12457;50.832;4.346;2022-09-09T11:52:38;19.70;92.40
24338;DHT22;12457;50.832;4.346;2022-09-09T11:55:24;19.80;91.40
24338;DHT22;12457;50.832;4.346;2022-09-09T11:58:02;19.90;91.60
24338;DHT22;12457;50.832;4.346;2022-09-09T12:00:38;19.80;90.40
24338;DHT22;12457;50.832;4.346;2022-09-09T12:03:40;19.80;88.60
24338;DHT22;12457;50.832;4.346;2022-09-09T12:08:55;19.70;90.50
24338;DHT22;12457;50.832;4.346;2022-09-09T12:11:28;19.50;91.80
24338;DHT22;12457;50.832;4.346;2022-09-09T12:14:00;19.40;93.50
24338;DHT22;12457;50.832;4.346;2022-09-09T12:16:46;19.50;93.50
24338;DHT22;12457;50.832;4.346;2022-09-09T12:19:19;19.40;92.10
24338;DHT22;12457;50.832;4.346;2022-09-09T12:24:43;19.30;92.20
24338;DHT22;12457;50.832;4.346;2022-09-09T12:27:36;19.20;93.50
24338;DHT22;12457;50.832;4.346;2022-09-09T12:30:14;19.30;94.30
24338;DHT22;12457;50.832;4.346;2022-09-09T12:32:41;19.40;92.90
24338;DHT22;12457;50.832;4.346;2022-09-09T12:35:14;19.50;91.20
24338;DHT22;12457;50.832;4.346;2022-09-09T12:38:00;19.40;92.50
24338;DHT22;12457;50.832;4.346;2022-09-09T12:40:32;19.60;90.60
24338;DHT22;12457;50.832;4.346;2022-09-09T12:43:14;19.90;91.20
24338;DHT22;12457;50.832;4.346;2022-09-09T12:45:42;20.20;84.10
24338;DHT22;12457;50.832;4.346;2022-09-09T12:48:09;20.20;82.60
24338;DHT22;12457;50.832;4.346;2022-09-09T12:50:50;20.20;84.30
24338;DHT22;12457;50.832;4.346;2022-09-09T12:56:03;20.20;80.90
24338;DHT22;12457;50.832;4.346;2022-09-09T12:58:30;20.20;77.30
24338;DHT22;12457;50.832;4.346;2022-09-09T13:01:01;20.40;74.50
24338;DHT22;12457;50.832;4.346;2022-09-09T13:03:30;20.70;75.80
24338;DHT22;12457;50.832;4.346;2022-09-09T13:05:59;20.60;65.40
24338;DHT22;12457;50.832;4.346;2022-09-09T13:08:35;20.60;62.90
24338;DHT22;12457;50.832;4.346;2022-09-09T13:11:04;20.50;73.10
24338;DHT22;12457;50.832;4.346;2022-09-09T13:13:41;20.50;74.40
24338;DHT22;12457;50.832;4.346;2022-09-09T13:16:26;20.60;72.00
24338;DHT22;12457;50.832;4.346;2022-09-09T13:19:01;20.70;71.20
24338;DHT22;12457;50.832;4.346;2022-09-09T13:21:35;20.60;70.80
24338;DHT22;12457;50.832;4.346;2022-09-09T13:24:05;20.70;66.20
24338;DHT22;12457;50.832;4.346;2022-09-09T13:26:33;20.60;67.80
24338;DHT22;12457;50.832;4.346;2022-09-09T13:29:19;20.60;62.80
24338;DHT22;12457;50.832;4.346;2022-09-09T13:31:45;20.60;64.50
24338;DHT22;12457;50.832;4.346;2022-09-09T13:34:30;20.80;69.60
24338;DHT22;12457;50.832;4.346;2022-09-09T13:37:04;20.90;56.70
24338;DHT22;12457;50.832;4.346;2022-09-09T13:39:37;21.10;58.10
24338;DHT22;12457;50.832;4.346;2022-09-09T13:42:03;21.10;51.70
24338;DHT22;12457;50.832;4.346;2022-09-09T13:44:34;21.30;50.80
24338;DHT22;12457;50.832;4.346;2022-09-09T13:49:29;21.70;50.20
24338;DHT22;12457;50.832;4.346;2022-09-09T13:52:16;21.80;45.90
24338;DHT22;12457;50.832;4.346;2022-09-09T13:54:55;21.80;42.30
24338;DHT22;12457;50.832;4.346;2022-09-09T13:57:31;21.60;43.00
24338;DHT22;12457;50.832;4.346;2022-09-09T14:00:15;21.70;42.40
24338;DHT22;12457;50.832;4.346;2022-09-09T14:02:44;21.80;34.50
24338;DHT22;12457;50.832;4.346;2022-09-09T14:05:10;22.00;34.00
24338;DHT22;12457;50.832;4.346;2022-09-09T14:07:38;22.10;34.70
24338;DHT22;12457;50.832;4.346;2022-09-09T14:10:14;22.20;31.40
24338;DHT22;12457;50.832;4.346;2022-09-09T14:12:45;22.10;36.00
24338;DHT22;12457;50.832;4.346;2022-09-09T14:15:12;21.90;32.20
24338;DHT22;12457;50.832;4.346;2022-09-09T14:17:38;21.90;39.60
24338;DHT22;12457;50.832;4.346;2022-09-09T14:20:05;21.80;39.80
24338;DHT22;12457;50.832;4.346;2022-09-09T14:22:33;21.60;43.90
24338;DHT22;12457;50.832;4.346;2022-09-09T14:24:58;21.50;44.70
24338;DHT22;12457;50.832;4.346;2022-09-09T14:27:24;21.50;43.90
24338;DHT22;12457;50.832;4.346;2022-09-09T14:29:52;21.60;47.50
24338;DHT22;12457;50.832;4.346;2022-09-09T14:32:17;21.50;48.00
24338;DHT22;12457;50.832;4.346;2022-09-09T14:34:43;21.60;46.10
24338;DHT22;12457;50.832;4.346;2022-09-09T14:37:47;21.70;48.40
24338;DHT22;12457;50.832;4.346;2022-09-09T14:40:17;21.80;42.40
24338;DHT22;12457;50.832;4.346;2022-09-09T14:42:43;22.00;38.60
24338;DHT22;12457;50.832;4.346;2022-09-09T14:45:12;21.90;43.50
24338;DHT22;12457;50.832;4.346;2022-09-09T14:47:47;21.80;39.50
24338;DHT22;12457;50.832;4.346;2022-09-09T14:50:39;21.60;42.40
24338;DHT22;12457;50.832;4.346;2022-09-09T14:53:09;21.50;46.60
24338;DHT22;12457;50.832;4.346;2022-09-09T14:55:36;21.50;41.20
24338;DHT22;12457;50.832;4.346;2022-09-09T14:58:03;21.60;40.40
24338;DHT22;12457;50.832;4.346;2022-09-09T15:00:28;21.70;40.40
24338;DHT22;12457;50.832;4.346;2022-09-09T15:02:54;21.60;37.10
24338;DHT22;12457;50.832;4.346;2022-09-09T15:05:21;21.60;38.30
24338;DHT22;12457;50.832;4.346;2022-09-09T15:07:47;21.70;36.20
24338;DHT22;12457;50.832;4.346;2022-09-09T15:10:14;21.70;31.90
24338;DHT22;12457;50.832;4.346;2022-09-09T15:12:40;21.50;31.50
24338;DHT22;12457;50.832;4.346;2022-09-09T15:15:08;21.60;32.00
24338;DHT22;12457;50.832;4.346;2022-09-09T15:17:34;21.50;35.30
24338;DHT22;12457;50.832;4.346;2022-09-09T15:19:59;21.40;39.60
24338;DHT22;12457;50.832;4.346;2022-09-09T15:22:25;21.40;37.10
24338;DHT22;12457;50.832;4.346;2022-09-09T15:24:51;21.50;37.50
24338;DHT22;12457;50.832;4.346;2022-09-09T15:27:16;21.50;36.90
24338;DHT22;12457;50.832;4.346;2022-09-09T15:29:43;21.30;39.10
24338;DHT22;12457;50.832;4.346;2022-09-09T15:32:09;21.20;39.70
24338;DHT22;12457;50.832;4.346;2022-09-09T15:34:35;21.20;43.70
24338;DHT22;12457;50.832;4.346;2022-09-09T15:37:01;21.00;43.90
24338;DHT22;12457;50.832;4.346;2022-09-09T15:39:29;20.90;45.10
24338;DHT22;12457;50.832;4.346;2022-09-09T15:42:51;20.70;48.50
24338;DHT22;12457;50.832;4.346;2022-09-09T15:45:18;20.70;49.30
24338;DHT22;12457;50.832;4.346;2022-09-09T15:47:47;20.90;51.80
24338;DHT22;12457;50.832;4.346;2022-09-09T15:50:12;21.00;55.80
24338;DHT22;12457;50.832;4.346;2022-09-09T15:52:38;21.00;56.20
24338;DHT22;12457;50.832;4.346;2022-09-09T15:55:04;21.10;58.90
24338;DHT22;12457;50.832;4.346;2022-09-09T15:57:30;21.20;53.80
24338;DHT22;12457;50.832;4.346;2022-09-09T16:00:38;21.10;55.50
24338;DHT22;12457;50.832;4.346;2022-09-09T16:03:15;21.10;54.10
24338;DHT22;12457;50.832;4.346;2022-09-09T16:05:56;20.90;56.90
24338;DHT22;12457;50.832;4.346;2022-09-09T16:08:35;20.70;58.30
24338;DHT22;12457;50.832;4.346;2022-09-09T16:11:25;20.70;59.80
24338;DHT22;12457;50.832;4.346;2022-09-09T16:14:00;20.80;57.90
24338;DHT22;12457;50.832;4.346;2022-09-09T16:16:28;20.70;59.30
24338;DHT22;12457;50.832;4.346;2022-09-09T16:19:06;20.60;59.20
24338;DHT22;12457;50.832;4.346;2022-09-09T16:21:41;20.60;60.20
24338;DHT22;12457;50.832;4.346;2022-09-09T16:24:08;20.40;63.40
24338;DHT22;12457;50.832;4.346;2022-09-09T16:26:35;20.50;65.50
24338;DHT22;12457;50.832;4.346;2022-09-09T16:29:02;20.30;78.80
24338;DHT22;12457;50.832;4.346;2022-09-09T16:31:29;20.00;85.60
24338;DHT22;12457;50.832;4.346;2022-09-09T16:33:56;19.50;83.30
24338;DHT22;12457;50.832;4.346;2022-09-09T16:36:24;19.30;89.60
24338;DHT22;12457;50.832;4.346;2022-09-09T16:39:20;19.10;91.00
24338;DHT22;12457;50.832;4.346;2022-09-09T16:41:47;18.90;91.50
24338;DHT22;12457;50.832;4.346;2022-09-09T16:44:14;18.90;92.80
24338;DHT22;12457;50.832;4.346;2022-09-09T16:46:45;18.80;91.50
24338;DHT22;12457;50.832;4.346;2022-09-09T16:49:13;18.70;94.50
24338;DHT22;12457;50.832;4.346;2022-09-09T16:51:45;18.80;96.90
24338;DHT22;12457;50.832;4.346;2022-09-09T16:54:12;18.90;97.50
24338;DHT22;12457;50.832;4.346;2022-09-09T16:56:41;18.90;97.30
24338;DHT22;12457;50.832;4.346;2022-09-09T16:59:13;19.00;98.70
24338;DHT22;12457;50.832;4.346;2022-09-09T17:01:40;18.90;99.30
24338;DHT22;12457;50.832;4.346;2022-09-09T17:04:09;19.00;99.90
24338;DHT22;12457;50.832;4.346;2022-09-09T17:06:39;19.00;99.90
24338;DHT22;12457;50.832;4.346;2022-09-09T17:09:21;19.00;99.90
24338;DHT22;12457;50.832;4.346;2022-09-09T17:11:57;19.00;99.90
24338;DHT22;12457;50.832;4.346;2022-09-09T17:14:23;19.10;99.90
24338;DHT22;12457;50.832;4.346;2022-09-09T17:16:49;19.10;99.90
24338;DHT22;12457;50.832;4.346;2022-09-09T17:19:19;19.00;99.00
24338;DHT22;12457;50.832;4.346;2022-09-09T17:21:48;18.90;99.20
24338;DHT22;12457;50.832;4.346;2022-09-09T17:24:13;18.80;98.50
24338;DHT22;12457;50.832;4.346;2022-09-09T17:26:40;18.70;99.50
24338;DHT22;12457;50.832;4.346;2022-09-09T17:29:06;18.50;99.80
24338;DHT22;12457;50.832;4.346;2022-09-09T17:31:35;18.60;98.40
24338;DHT22;12457;50.832;4.346;2022-09-09T17:34:07;18.60;95.70
24338;DHT22;12457;50.832;4.346;2022-09-09T17:36:33;18.50;95.20
24338;DHT22;12457;50.832;4.346;2022-09-09T17:39:01;18.30;94.60
24338;DHT22;12457;50.832;4.346;2022-09-09T17:41:29;18.30;92.90
24338;DHT22;12457;50.832;4.346;2022-09-09T17:43:56;18.20;91.70
24338;DHT22;12457;50.832;4.346;2022-09-09T17:46:34;18.10;92.70
24338;DHT22;12457;50.832;4.346;2022-09-09T17:49:15;18.00;94.00
24338;DHT22;12457;50.832;4.346;2022-09-09T17:51:44;18.00;93.50